Time;durP1;ratioP1;P1;durP2;ratioP2;P2;SDS_P1;SDS_P2;PMS_P1;PMS_P2;Temp;Humidity;BMP_temperature;BMP_pressure;BME280_temperature;BME280_humidity;BME280_pressure;Samples;Min_cycle;Max_cycle;Signal;HPM_P1;HPM_P2
2023/03/12 00:02:17;;;;;;;7.43;2.77;;;;;;;-0.07;84.96;97751.19;5090186;28;20220;-73
2023/03/12 00:04:44;;;;;;;7.27;3.10;;;;;;;-0.12;85.87;97753.47;5090743;28;20200;-74
2023/03/12 00:07:10;;;;;;;4.57;3.03;;;;;;;-0.07;86.84;97749.41;5090176;28;20269;-73
2023/03/12 00:09:38;;;;;;;5.57;3.03;;;;;;;-0.07;86.04;97751.19;5089707;28;20208;-73
2023/03/12 00:12:06;;;;;;;6.13;3.17;;;;;;;-0.03;87.63;97748.06;5089683;28;20588;-76
2023/03/12 00:14:33;;;;;;;6.50;3.03;;;;;;;-0.02;89.51;97754.97;5089988;28;20239;-74
2023/03/12 00:16:59;;;;;;;6.63;3.20;;;;;;;0.03;88.56;97748.44;5089587;28;20276;-74
2023/03/12 00:19:26;;;;;;;6.53;3.23;;;;;;;-0.05;89.83;97752.66;5089926;28;20228;-73
2023/03/12 00:21:53;;;;;;;4.57;3.20;;;;;;;0.00;90.35;97757.41;5089820;28;20224;-73
2023/03/12 00:24:19;;;;;;;7.53;3.63;;;;;;;-0.11;87.47;97755.09;5089575;28;20551;-73
2023/03/12 00:26:46;;;;;;;7.83;4.00;;;;;;;-0.04;89.20;97758.72;5089503;28;20204;-73
2023/03/12 00:29:12;;;;;;;6.67;3.83;;;;;;;-0.03;89.23;97761.13;5077969;28;20208;-73
2023/03/12 00:31:39;;;;;;;5.90;3.40;;;;;;;-0.01;88.16;97753.97;5076522;28;20204;-73
2023/03/12 00:34:05;;;;;;;7.67;3.93;;;;;;;-0.01;90.51;97748.75;5076119;28;20213;-73
2023/03/12 00:36:32;;;;;;;8.93;4.40;;;;;;;-0.04;90.62;97749.06;5075988;28;20227;-73
2023/03/12 00:39:00;;;;;;;8.57;4.50;;;;;;;-0.03;91.36;97750.69;5076119;28;20204;-73
2023/03/12 00:41:29;;;;;;;6.60;4.03;;;;;;;0.00;91.74;97749.56;5076031;28;20207;-73
2023/03/12 00:43:56;;;;;;;7.43;4.43;;;;;;;-0.07;93.23;97738.13;5076173;28;20267;-73
2023/03/12 00:46:22;;;;;;;7.10;4.73;;;;;;;-0.06;93.22;97737.13;5075577;28;20677;-73
2023/03/12 00:48:49;;;;;;;8.27;4.23;;;;;;;-0.05;93.19;97736.16;5075841;28;20295;-73
2023/03/12 00:51:16;;;;;;;8.23;4.60;;;;;;;-0.03;94.14;97735.00;5075827;28;20209;-73
2023/03/12 00:53:42;;;;;;;7.10;4.03;;;;;;;-0.07;93.72;97746.78;5075378;28;20772;-73
2023/03/12 00:56:09;;;;;;;8.43;4.70;;;;;;;-0.04;93.72;97737.81;5075763;28;20200;-73
2023/03/12 00:58:35;;;;;;;7.40;4.77;;;;;;;-0.06;93.10;97731.91;5075706;28;20254;-73
2023/03/12 01:01:02;;;;;;;6.97;4.77;;;;;;;-0.07;94.24;97736.34;5075674;28;20211;-73
2023/03/12 01:03:28;;;;;;;5.87;4.40;;;;;;;-0.02;93.67;97741.91;5075314;28;20308;-75
2023/03/12 01:05:55;;;;;;;8.87;4.93;;;;;;;0.01;93.41;97736.31;5075367;28;20211;-75
2023/03/12 01:08:23;;;;;;;10.90;5.10;;;;;;;-0.05;95.05;97736.16;5075554;28;20204;-75
2023/03/12 01:10:49;;;;;;;7.13;5.00;;;;;;;0.04;95.67;97735.19;5076299;28;20291;-75
2023/03/12 01:13:16;;;;;;;8.17;5.00;;;;;;;0.08;94.56;97731.28;5075517;28;20310;-75
2023/03/12 01:15:42;;;;;;;9.17;4.83;;;;;;;0.11;94.35;97733.56;5075451;28;20204;-75
2023/03/12 01:18:08;;;;;;;7.23;4.50;;;;;;;0.12;93.68;97729.16;5075302;28;20232;-75
2023/03/12 01:20:35;;;;;;;9.80;5.33;;;;;;;0.08;94.13;97734.72;5074980;28;20209;-75
2023/03/12 01:23:01;;;;;;;8.80;5.03;;;;;;;0.08;94.84;97741.72;5075184;28;20232;-75
2023/03/12 01:25:28;;;;;;;8.00;5.23;;;;;;;0.12;94.28;97737.81;5075521;28;20208;-75
2023/03/12 01:27:54;;;;;;;8.53;5.30;;;;;;;0.17;94.06;97740.75;5075230;28;20207;-75
2023/03/12 01:30:20;;;;;;;8.67;5.03;;;;;;;0.27;94.66;97735.38;5075163;28;20204;-75
2023/03/12 01:32:47;;;;;;;8.43;5.20;;;;;;;0.28;94.41;97731.78;5074962;28;20220;-75
2023/03/12 01:35:13;;;;;;;9.53;5.10;;;;;;;0.24;95.44;97739.94;5074956;28;20570;-75
2023/03/12 01:37:39;;;;;;;8.93;4.83;;;;;;;0.30;94.18;97733.25;5074790;28;20247;-75
2023/03/12 01:40:06;;;;;;;6.90;4.83;;;;;;;0.30;94.63;97743.72;5073670;28;20215;-75
2023/03/12 01:42:32;;;;;;;7.50;4.90;;;;;;;0.36;93.35;97743.06;5074735;28;20231;-75
2023/03/12 01:45:02;;;;;;;7.80;4.87;;;;;;;0.37;94.69;97741.25;5074538;28;20660;-75
2023/03/12 01:47:30;;;;;;;9.27;5.20;;;;;;;0.41;93.60;97746.03;5074736;28;20201;-75
2023/03/12 01:49:58;;;;;;;13.33;5.53;;;;;;;0.38;93.71;97741.09;5074747;28;20205;-75
2023/03/12 01:52:29;;;;;;;9.80;5.23;;;;;;;0.34;93.59;97739.78;5074593;28;20220;-75
2023/03/12 01:55:18;;;;;;;9.47;4.73;;;;;;;0.42;93.69;97745.03;5074739;28;20200;-75
2023/03/12 01:57:53;;;;;;;8.83;5.30;;;;;;;0.47;94.77;97740.94;5074045;28;20595;-75
2023/03/12 02:00:23;;;;;;;8.77;5.23;;;;;;;0.34;93.69;97737.19;5074284;28;20197;-75
2023/03/12 02:02:52;;;;;;;9.50;5.70;;;;;;;0.35;93.48;97743.25;5074480;28;20232;-75
2023/03/12 02:05:24;;;;;;;8.63;5.10;;;;;;;0.44;93.54;97747.50;5074450;28;20210;-75
2023/03/12 02:07:51;;;;;;;10.87;5.33;;;;;;;0.51;93.48;97745.84;5074425;28;20590;-75
2023/03/12 02:10:17;;;;;;;8.20;4.67;;;;;;;0.46;92.89;97741.13;5074390;28;20205;-75
2023/03/12 02:12:44;;;;;;;6.00;4.67;;;;;;;0.35;93.98;97745.84;5074269;28;20312;-75
2023/03/12 02:15:11;;;;;;;9.17;5.57;;;;;;;0.47;92.91;97738.31;5073896;28;20204;-75
2023/03/12 02:17:39;;;;;;;7.37;4.70;;;;;;;0.45;93.34;97731.63;5073202;28;20634;-75
2023/03/12 02:20:18;;;;;;;8.27;5.40;;;;;;;0.44;92.18;97735.22;5073797;28;20212;-75
2023/03/12 02:22:52;;;;;;;8.07;5.33;;;;;;;0.43;95.13;97736.19;5073659;28;20418;-75
2023/03/12 02:25:38;;;;;;;8.93;5.30;;;;;;;0.27;93.99;97733.56;5073429;28;20196;-75
2023/03/12 02:28:09;;;;;;;11.47;5.33;;;;;;;0.23;93.35;97733.09;5073715;28;20189;-75
2023/03/12 02:30:36;;;;;;;7.37;4.67;;;;;;;0.19;93.61;97734.38;5073749;28;20651;-75
2023/03/12 02:33:07;;;;;;;10.17;6.03;;;;;;;0.19;92.83;97730.97;5073884;28;20228;-75
2023/03/12 02:35:33;;;;;;;10.70;5.13;;;;;;;0.23;94.16;97725.25;5074318;28;20529;-75
2023/03/12 02:38:00;;;;;;;10.13;5.33;;;;;;;0.17;94.13;97729.50;5073838;28;20224;-75
2023/03/12 02:40:31;;;;;;;9.27;5.10;;;;;;;0.10;94.89;97735.34;5073784;28;20211;-75
2023/03/12 02:42:58;;;;;;;8.07;5.37;;;;;;;0.15;94.40;97729.66;5073441;28;20228;-75
2023/03/12 02:45:25;;;;;;;10.03;5.70;;;;;;;0.20;94.01;97730.00;5073478;28;20205;-75
2023/03/12 02:47:53;;;;;;;8.83;5.50;;;;;;;0.16;94.65;97733.91;5073724;28;20200;-75
2023/03/12 02:50:19;;;;;;;8.30;4.63;;;;;;;0.19;94.63;97731.78;5073441;28;20214;-75
2023/03/12 02:52:45;;;;;;;9.20;5.70;;;;;;;0.27;95.00;97735.38;5073096;28;20707;-75
2023/03/12 02:55:12;;;;;;;10.67;5.90;;;;;;;0.23;94.75;97734.91;5073518;28;20579;-75
2023/03/12 02:57:39;;;;;;;8.77;5.13;;;;;;;0.20;94.16;97732.59;5073533;28;20220;-75
2023/03/12 03:00:10;;;;;;;7.97;5.40;;;;;;;0.16;94.81;97728.69;5073640;28;20283;-75
2023/03/12 03:02:37;;;;;;;11.00;5.80;;;;;;;0.14;96.24;97728.84;5073568;28;20564;-75
2023/03/12 03:05:03;;;;;;;12.83;5.30;;;;;;;0.13;96.03;97729.00;5073503;28;20200;-73
2023/03/12 03:07:30;;;;;;;9.70;5.67;;;;;;;0.05;94.18;97731.63;5073204;28;20288;-73
2023/03/12 03:10:02;;;;;;;10.17;5.23;;;;;;;0.03;94.40;97726.53;5073440;28;20575;-73
2023/03/12 03:12:29;;;;;;;11.37;6.07;;;;;;;0.08;95.88;97721.66;5073278;28;20235;-73
2023/03/12 03:14:55;;;;;;;7.60;5.33;;;;;;;0.06;94.84;97718.34;5073383;28;20215;-73
2023/03/12 03:17:23;;;;;;;8.77;5.27;;;;;;;0.03;94.67;97722.31;5072984;28;20228;-73
2023/03/12 03:19:50;;;;;;;9.13;4.97;;;;;;;-0.03;96.14;97714.09;5073363;28;20250;-73
2023/03/12 03:22:18;;;;;;;7.27;4.90;;;;;;;0.08;95.38;97709.56;5073249;28;20225;-73
2023/03/12 03:24:44;;;;;;;10.03;5.90;;;;;;;-0.02;95.68;97705.31;5073170;28;20204;-73
2023/03/12 03:27:11;;;;;;;9.90;5.17;;;;;;;-0.11;95.46;97700.22;5073728;28;20299;-75
2023/03/12 03:29:37;;;;;;;7.93;5.03;;;;;;;-0.02;95.74;97696.66;5073313;28;20212;-76
2023/03/12 03:32:04;;;;;;;7.00;4.97;;;;;;;0.08;96.86;97693.88;5073139;28;20228;-76
2023/03/12 03:34:31;;;;;;;7.13;4.93;;;;;;;0.15;96.07;97699.09;5072871;28;20291;-73
2023/03/12 03:36:57;;;;;;;10.57;5.13;;;;;;;0.28;96.20;97696.03;5073071;28;20200;-73
2023/03/12 03:39:24;;;;;;;8.77;5.30;;;;;;;0.27;95.44;97701.41;5073128;28;20204;-73
2023/03/12 03:41:51;;;;;;;9.23;5.30;;;;;;;0.21;94.62;97700.25;5072775;28;20224;-73
2023/03/12 03:44:18;;;;;;;8.80;5.13;;;;;;;0.22;93.76;97704.50;5073037;28;20207;-76
2023/03/12 03:46:45;;;;;;;7.67;5.13;;;;;;;0.24;95.14;97702.56;5073014;28;20215;-74
2023/03/12 03:49:12;;;;;;;8.47;4.93;;;;;;;0.36;94.44;97706.44;5072986;28;20212;-74
2023/03/12 03:51:40;;;;;;;7.07;5.23;;;;;;;0.39;95.28;97713.97;5072893;28;20204;-74
2023/03/12 03:54:07;;;;;;;6.77;4.63;;;;;;;0.37;94.48;97715.94;5073560;28;20205;-74
2023/03/12 03:56:33;;;;;;;8.70;5.10;;;;;;;0.33;93.97;97697.13;5073034;28;20580;-74
2023/03/12 03:59:00;;;;;;;8.80;4.33;;;;;;;0.32;94.18;97710.41;5072842;28;20236;-74
2023/03/12 04:01:27;;;;;;;5.67;4.63;;;;;;;0.49;95.53;97703.34;5072717;28;20584;-74
2023/03/12 04:03:54;;;;;;;8.10;4.60;;;;;;;0.44;93.72;97697.81;5074491;28;20236;-74
2023/03/12 04:06:20;;;;;;;7.73;4.70;;;;;;;0.58;94.55;97692.72;5076735;28;20208;-74
2023/03/12 04:08:46;;;;;;;9.30;4.83;;;;;;;0.40;93.08;97686.84;5076634;28;20197;-74
2023/03/12 04:11:16;;;;;;;8.40;4.80;;;;;;;0.42;94.54;97684.06;5076535;28;20210;-74
2023/03/12 04:13:42;;;;;;;7.70;4.97;;;;;;;0.45;93.86;97678.50;5076459;28;20225;-73
2023/03/12 04:16:10;;;;;;;8.13;4.93;;;;;;;0.51;93.37;97681.28;5075883;28;20208;-74
2023/03/12 04:18:37;;;;;;;8.97;4.57;;;;;;;0.51;95.36;97690.91;5076129;28;20208;-74
2023/03/12 04:21:05;;;;;;;7.53;4.53;;;;;;;0.49;94.16;97682.44;5076117;28;20212;-74
2023/03/12 04:23:32;;;;;;;9.30;5.00;;;;;;;0.53;95.09;97688.97;5076319;28;20587;-74
2023/03/12 04:25:58;;;;;;;11.37;5.10;;;;;;;0.64;95.13;97688.63;5075998;28;20204;-74
2023/03/12 04:28:25;;;;;;;7.23;4.73;;;;;;;0.62;95.32;97693.22;5076319;28;20205;-74
2023/03/12 04:31:00;;;;;;;8.63;5.00;;;;;;;0.58;94.40;97689.28;5076720;28;20236;-74
2023/03/12 04:33:31;;;;;;;8.20;4.37;;;;;;;0.60;95.37;97689.94;5075864;28;20220;-74
2023/03/12 04:35:58;;;;;;;9.07;4.90;;;;;;;0.68;96.07;97690.75;5076199;28;20203;-74
2023/03/12 04:38:26;;;;;;;6.17;4.03;;;;;;;0.60;95.64;97703.84;5075952;28;20228;-74
2023/03/12 04:41:06;;;;;;;8.10;4.80;;;;;;;0.66;96.81;97697.09;5076022;28;20211;-73
2023/03/12 04:43:33;;;;;;;9.90;5.20;;;;;;;0.75;95.15;97696.09;5075965;28;20334;-74
2023/03/12 04:46:00;;;;;;;5.80;4.30;;;;;;;0.68;94.85;97692.53;5076028;28;20211;-74
2023/03/12 04:48:27;;;;;;;8.30;4.77;;;;;;;0.75;94.86;97694.31;5075847;28;20208;-74
2023/03/12 04:50:54;;;;;;;8.43;4.60;;;;;;;0.80;93.51;97691.22;5075770;28;20215;-74
2023/03/12 04:53:21;;;;;;;9.77;4.60;;;;;;;0.81;93.55;97695.47;5075716;28;20229;-74
2023/03/12 04:55:47;;;;;;;7.97;4.40;;;;;;;0.81;93.04;97687.63;5075796;28;20549;-74
2023/03/12 04:58:14;;;;;;;8.40;4.87;;;;;;;0.78;93.78;97686.16;5075592;28;20234;-74
2023/03/12 05:00:41;;;;;;;7.90;4.00;;;;;;;0.91;92.89;97685.63;5075777;28;20208;-74
2023/03/12 05:03:08;;;;;;;7.90;4.27;;;;;;;0.92;93.17;97676.78;5075792;28;20254;-74
2023/03/12 05:05:35;;;;;;;6.57;4.70;;;;;;;0.88;92.87;97686.78;5075531;28;20207;-74
2023/03/12 05:08:02;;;;;;;6.93;4.47;;;;;;;0.89;94.25;97695.44;5075470;28;20201;-74
2023/03/12 05:10:28;;;;;;;6.30;4.23;;;;;;;0.88;92.53;97688.56;5075471;28;20200;-74
2023/03/12 05:12:55;;;;;;;6.33;4.40;;;;;;;0.91;93.34;97686.44;5075403;28;20228;-74
2023/03/12 05:15:21;;;;;;;7.63;4.40;;;;;;;0.96;93.18;97678.09;5075384;28;20210;-74
2023/03/12 05:17:48;;;;;;;6.67;4.30;;;;;;;0.94;93.41;97677.44;5075093;28;20235;-74
2023/03/12 05:20:14;;;;;;;6.70;4.63;;;;;;;0.94;94.89;97683.47;5075022;28;20690;-74
2023/03/12 05:22:40;;;;;;;6.47;4.00;;;;;;;0.96;92.96;97681.53;5075173;28;20224;-74
2023/03/12 05:25:07;;;;;;;8.10;4.50;;;;;;;1.01;92.40;97678.38;5075260;28;20575;-74
2023/03/12 05:27:34;;;;;;;6.97;4.37;;;;;;;1.01;92.70;97673.97;5075190;28;20210;-74
2023/03/12 05:30:00;;;;;;;5.73;4.23;;;;;;;0.98;92.74;97674.31;5075122;28;20208;-74
2023/03/12 05:32:27;;;;;;;6.30;4.07;;;;;;;1.04;92.48;97681.47;5074626;28;20707;-74
2023/03/12 05:34:53;;;;;;;6.27;4.67;;;;;;;1.08;93.89;97677.53;5074973;28;20204;-74
2023/03/12 05:37:19;;;;;;;7.57;4.57;;;;;;;1.07;93.30;97688.22;5074901;28;20549;-74
2023/03/12 05:39:46;;;;;;;8.30;4.30;;;;;;;1.18;94.29;97674.72;5074790;28;20221;-74
2023/03/12 05:42:14;;;;;;;7.20;4.30;;;;;;;1.16;92.17;97687.16;5074761;28;20235;-75
2023/03/12 05:44:41;;;;;;;6.37;4.33;;;;;;;1.19;92.66;97681.59;5074531;28;20215;-74
2023/03/12 05:47:07;;;;;;;5.80;4.30;;;;;;;1.27;92.43;97682.41;5074568;28;20564;-74
2023/03/12 05:49:34;;;;;;;6.30;4.03;;;;;;;1.28;94.07;97696.28;5074599;28;20201;-74
2023/03/12 05:52:00;;;;;;;8.50;4.33;;;;;;;1.28;93.53;97691.88;5074335;28;20733;-74
2023/03/12 05:54:27;;;;;;;9.23;4.33;;;;;;;1.30;93.27;97699.56;5074719;28;20231;-74
2023/03/12 05:56:54;;;;;;;5.17;3.70;;;;;;;1.29;93.31;97700.53;5074601;28;20257;-74
2023/03/12 05:59:21;;;;;;;6.63;4.10;;;;;;;1.32;93.46;97698.41;5074546;28;20220;-74
2023/03/12 06:01:47;;;;;;;4.87;4.03;;;;;;;1.37;93.30;97690.88;5074505;28;20200;-74
2023/03/12 06:04:13;;;;;;;6.80;4.00;;;;;;;1.28;94.92;97699.75;5074503;28;20208;-74
2023/03/12 06:06:40;;;;;;;7.30;4.87;;;;;;;1.33;95.53;97701.84;5074127;28;20204;-74
2023/03/12 06:09:07;;;;;;;6.63;4.40;;;;;;;1.34;96.90;97700.84;5074353;28;20196;-74
2023/03/12 06:11:34;;;;;;;6.87;4.50;;;;;;;1.25;98.91;97696.63;5074189;28;20216;-74
2023/03/12 06:14:01;;;;;;;8.63;4.53;;;;;;;1.25;99.48;97691.38;5074263;28;20211;-74
2023/03/12 06:16:28;;;;;;;6.47;4.47;;;;;;;1.28;99.35;97693.66;5073823;28;20213;-74
2023/03/12 06:19:01;;;;;;;5.80;4.57;;;;;;;1.25;100.00;97689.59;5073786;28;20323;-74
2023/03/12 06:21:30;;;;;;;6.60;4.33;;;;;;;1.12;100.00;97688.50;5074219;28;20205;-74
2023/03/12 06:23:57;;;;;;;7.20;4.03;;;;;;;1.14;100.00;97691.75;5074156;28;20239;-74
2023/03/12 06:26:24;;;;;;;5.73;4.50;;;;;;;1.14;100.00;97686.53;5073259;28;20216;-74
2023/03/12 06:28:51;;;;;;;7.73;4.70;;;;;;;1.15;100.00;97683.75;5074098;28;20200;-74
2023/03/12 06:31:17;;;;;;;7.63;4.37;;;;;;;1.15;100.00;97678.50;5073998;28;20215;-74
2023/03/12 06:33:44;;;;;;;6.23;4.53;;;;;;;1.14;100.00;97678.69;5073905;28;20316;-74
2023/03/12 06:36:11;;;;;;;7.43;4.33;;;;;;;1.10;100.00;97680.81;5073952;28;20204;-74
2023/03/12 06:38:37;;;;;;;6.37;4.80;;;;;;;1.22;100.00;97676.03;5073757;28;20224;-74
2023/03/12 06:41:12;;;;;;;7.13;4.50;;;;;;;1.13;100.00;97669.19;5073408;28;20239;-74
2023/03/12 06:43:39;;;;;;;9.03;5.20;;;;;;;1.18;100.00;97675.56;5073617;28;20250;-74
2023/03/12 06:46:08;;;;;;;7.60;4.40;;;;;;;1.17;100.00;97675.72;5073743;28;20295;-74
2023/03/12 06:48:36;;;;;;;9.03;4.67;;;;;;;1.15;100.00;97669.81;5073664;28;20207;-74
2023/03/12 06:51:03;;;;;;;8.00;4.97;;;;;;;1.17;100.00;97673.09;5073977;28;20572;-74
2023/03/12 06:53:30;;;;;;;7.57;4.63;;;;;;;1.14;100.00;97662.97;5073478;28;20232;-76
2023/03/12 06:55:57;;;;;;;5.87;4.60;;;;;;;1.31;100.00;97672.41;5073669;28;20302;-76
2023/03/12 06:58:23;;;;;;;9.10;4.93;;;;;;;1.32;100.00;97671.41;5073406;28;20231;-76
2023/03/12 07:00:51;;;;;;;9.27;5.60;;;;;;;1.32;100.00;97669.63;5073801;28;20205;-76
2023/03/12 07:03:17;;;;;;;9.27;4.67;;;;;;;1.40;100.00;97677.41;5073471;28;20225;-76
2023/03/12 07:05:45;;;;;;;7.50;4.90;;;;;;;1.47;100.00;97683.59;5073173;28;20637;-76
2023/03/12 07:08:12;;;;;;;6.67;5.17;;;;;;;1.28;100.00;97678.78;5073380;28;20203;-76
2023/03/12 07:10:39;;;;;;;8.37;5.27;;;;;;;1.37;100.00;97683.00;5073402;28;20200;-76
2023/03/12 07:13:05;;;;;;;7.43;4.60;;;;;;;1.37;100.00;97684.78;5073277;28;20227;-76
2023/03/12 07:15:32;;;;;;;8.13;5.13;;;;;;;1.36;100.00;97684.00;5073850;28;20211;-76
2023/03/12 07:18:05;;;;;;;8.07;4.73;;;;;;;1.38;100.00;97674.16;5073170;28;20551;-77
2023/03/12 07:20:32;;;;;;;8.10;5.27;;;;;;;1.43;100.00;97679.69;5073332;28;20204;-76
2023/03/12 07:22:59;;;;;;;7.93;5.30;;;;;;;1.55;100.00;97682.75;5073314;28;20228;-77
2023/03/12 07:25:26;;;;;;;7.53;5.10;;;;;;;1.61;100.00;97684.66;5073339;28;20208;-77
2023/03/12 07:27:52;;;;;;;6.37;5.60;;;;;;;1.71;100.00;97682.69;5073346;28;20204;-76
2023/03/12 07:30:18;;;;;;;6.03;4.87;;;;;;;1.71;100.00;97693.16;5073333;28;20200;-77
2023/03/12 07:32:45;;;;;;;7.73;5.30;;;;;;;1.80;100.00;97689.50;5072854;28;20229;-74
2023/03/12 07:35:11;;;;;;;5.77;5.10;;;;;;;1.73;100.00;97697.22;5073298;28;20553;-74
2023/03/12 07:37:37;;;;;;;8.07;5.50;;;;;;;1.85;100.00;97697.66;5072767;28;20216;-74
2023/03/12 07:40:06;;;;;;;11.23;5.80;;;;;;;2.02;100.00;97691.28;5077100;28;20231;-74
2023/03/12 07:42:32;;;;;;;6.93;5.10;;;;;;;1.89;100.00;97683.22;5076512;28;20721;-74
2023/03/12 07:44:59;;;;;;;6.47;4.67;;;;;;;2.04;100.00;97691.94;5076808;28;20215;-74
2023/03/12 07:47:25;;;;;;;5.70;4.60;;;;;;;2.10;100.00;97683.38;5077046;28;20201;-74
2023/03/12 07:49:52;;;;;;;9.23;5.23;;;;;;;2.25;100.00;97687.69;5077092;28;20201;-74
2023/03/12 07:52:19;;;;;;;6.13;4.90;;;;;;;2.28;100.00;97687.34;5076631;28;20228;-74
2023/03/12 07:54:45;;;;;;;6.40;5.13;;;;;;;2.46;100.00;97681.78;5076965;28;20204;-74
2023/03/12 07:57:12;;;;;;;5.67;5.07;;;;;;;2.49;100.00;97684.06;5076592;28;20216;-74
2023/03/12 07:59:38;;;;;;;5.90;4.40;;;;;;;2.39;100.00;97679.03;5076848;28;20228;-74
2023/03/12 08:02:04;;;;;;;6.50;4.40;;;;;;;2.53;100.00;97683.50;5076656;28;20232;-74
2023/03/12 08:04:31;;;;;;;5.20;4.53;;;;;;;2.56;100.00;97691.03;5076337;28;20209;-74
2023/03/12 08:06:57;;;;;;;6.87;4.17;;;;;;;2.62;100.00;97692.16;5076673;28;20295;-74
2023/03/12 08:09:24;;;;;;;8.60;4.73;;;;;;;2.45;100.00;97691.47;5076532;28;20204;-74
2023/03/12 08:11:50;;;;;;;10.83;4.80;;;;;;;2.59;100.00;97695.09;5076110;28;20675;-74
2023/03/12 08:14:16;;;;;;;6.13;4.40;;;;;;;2.61;100.00;97678.19;5076416;28;20242;-74
2023/03/12 08:16:43;;;;;;;11.60;4.27;;;;;;;2.65;100.00;97689.97;5076212;28;20208;-76
2023/03/12 08:19:09;;;;;;;6.73;4.73;;;;;;;2.86;100.00;97686.66;5076361;28;20235;-74
2023/03/12 08:21:36;;;;;;;6.40;4.13;;;;;;;2.88;100.00;97692.53;5076281;28;20212;-74
2023/03/12 08:24:02;;;;;;;5.10;4.60;;;;;;;2.92;100.00;97696.41;5076195;28;20211;-74
2023/03/12 08:26:28;;;;;;;5.23;4.40;;;;;;;2.83;100.00;97693.06;5076902;28;20212;-76
2023/03/12 08:28:55;;;;;;;6.07;4.23;;;;;;;2.77;100.00;97692.97;5076340;28;20304;-77
2023/03/12 08:31:21;;;;;;;6.27;4.03;;;;;;;2.84;100.00;97696.53;5075661;28;20209;-76
2023/03/12 08:33:47;;;;;;;5.47;4.27;;;;;;;2.89;100.00;97694.97;5075975;28;20228;-76
2023/03/12 08:36:14;;;;;;;6.10;4.53;;;;;;;2.90;100.00;97698.44;5076047;28;20208;-76
2023/03/12 08:38:40;;;;;;;6.00;4.10;;;;;;;3.13;100.00;97699.16;5076019;28;20232;-76
2023/03/12 08:41:06;;;;;;;5.87;4.67;;;;;;;3.08;100.00;97696.25;5075960;28;20211;-76
2023/03/12 08:43:33;;;;;;;6.90;4.67;;;;;;;3.22;100.00;97711.22;5075901;28;20230;-76
2023/03/12 08:46:01;;;;;;;5.70;4.50;;;;;;;3.32;100.00;97699.44;5075552;28;20659;-76
2023/03/12 08:48:29;;;;;;;8.13;4.63;;;;;;;3.38;100.00;97697.88;5075352;28;20686;-77
2023/03/12 08:50:58;;;;;;;8.27;5.33;;;;;;;3.43;100.00;97700.78;5075653;28;20208;-76
2023/03/12 08:53:26;;;;;;;8.10;5.07;;;;;;;3.56;100.00;97706.19;5075860;28;20598;-77
2023/03/12 08:55:57;;;;;;;9.77;4.83;;;;;;;3.69;100.00;97701.91;5075820;28;20227;-76
2023/03/12 08:58:24;;;;;;;5.90;4.40;;;;;;;3.69;100.00;97707.19;5075363;28;20259;-76
2023/03/12 09:00:51;;;;;;;6.13;5.37;;;;;;;3.83;100.00;97698.44;5075331;28;20252;-76
2023/03/12 09:03:18;;;;;;;7.60;4.50;;;;;;;4.00;100.00;97688.50;5075557;28;20225;-77
2023/03/12 09:05:45;;;;;;;6.63;4.87;;;;;;;3.91;100.00;97684.34;5075324;28;20215;-74
2023/03/12 09:08:11;;;;;;;7.27;4.97;;;;;;;3.94;100.00;97686.63;5075201;28;20215;-74
2023/03/12 09:10:38;;;;;;;5.60;4.73;;;;;;;4.03;100.00;97680.25;5075002;28;20673;-74
2023/03/12 09:13:04;;;;;;;6.50;4.70;;;;;;;3.97;100.00;97686.25;5075101;28;20780;-74
2023/03/12 09:15:31;;;;;;;7.30;4.70;;;;;;;4.08;100.00;97691.03;5075325;28;20210;-74
2023/03/12 09:17:58;;;;;;;6.43;4.50;;;;;;;4.02;100.00;97692.56;5074775;28;20208;-74
2023/03/12 09:20:25;;;;;;;9.07;4.77;;;;;;;4.16;100.00;97689.06;5074751;28;20619;-74
2023/03/12 09:22:52;;;;;;;7.37;5.33;;;;;;;4.36;100.00;97689.25;5075079;28;20225;-74
2023/03/12 09:25:19;;;;;;;7.40;4.73;;;;;;;4.44;100.00;97695.19;5074865;28;20213;-74
2023/03/12 09:27:47;;;;;;;7.60;5.57;;;;;;;4.47;100.00;97697.47;5074821;28;20317;-74
2023/03/12 09:30:18;;;;;;;7.93;5.10;;;;;;;4.65;100.00;97697.03;5075444;28;20204;-74
2023/03/12 09:32:45;;;;;;;6.13;5.33;;;;;;;4.75;100.00;97705.41;5074679;28;20235;-74
2023/03/12 09:35:12;;;;;;;5.77;5.07;;;;;;;4.80;100.00;97700.38;5074452;28;20212;-76
2023/03/12 09:37:39;;;;;;;6.87;4.93;;;;;;;4.78;100.00;97697.09;5074853;28;20201;-76
2023/03/12 09:40:07;;;;;;;5.63;4.63;;;;;;;4.88;100.00;97705.50;5074739;28;20220;-74
2023/03/12 09:42:36;;;;;;;6.17;4.67;;;;;;;5.08;100.00;97706.44;5074687;28;20319;-74
2023/03/12 09:45:07;;;;;;;6.40;5.40;;;;;;;5.19;100.00;97709.34;5074527;28;20556;-74
2023/03/12 09:47:37;;;;;;;7.27;5.23;;;;;;;5.09;100.00;97706.25;5074360;28;20185;-74
2023/03/12 09:50:19;;;;;;;6.87;5.07;;;;;;;5.27;100.00;97705.75;5074383;28;20715;-74
2023/03/12 09:53:01;;;;;;;6.67;5.30;;;;;;;5.43;100.00;97700.97;5072975;28;20231;-74
2023/03/12 09:55:35;;;;;;;6.33;5.30;;;;;;;5.56;100.00;97713.44;5074407;28;20188;-74
2023/03/12 09:58:01;;;;;;;7.57;5.50;;;;;;;5.38;100.00;97707.84;5073705;28;20659;-74
2023/03/12 10:00:33;;;;;;;8.30;5.63;;;;;;;5.38;100.00;97705.22;5073232;28;20232;-74
2023/03/12 10:03:05;;;;;;;7.00;5.27;;;;;;;5.95;100.00;97711.78;5073976;28;20230;-74
2023/03/12 10:05:47;;;;;;;7.37;5.23;;;;;;;5.99;100.00;97715.66;5073076;28;20221;-74
2023/03/12 10:08:27;;;;;;;6.97;5.67;;;;;;;6.20;100.00;97712.84;5072216;28;20199;-74
2023/03/12 10:10:58;;;;;;;7.80;5.63;;;;;;;6.34;100.00;97714.50;5072074;28;20184;-74
2023/03/12 10:13:33;;;;;;;7.67;5.93;;;;;;;6.40;100.00;97713.72;5072030;28;20238;-74
2023/03/12 10:16:02;;;;;;;8.63;5.73;;;;;;;6.68;100.00;97718.81;5071906;28;20300;-74
2023/03/12 10:18:45;;;;;;;7.10;4.70;;;;;;;6.90;100.00;97714.97;5071625;28;20189;-74
2023/03/12 10:21:22;;;;;;;6.07;4.73;;;;;;;7.21;100.00;97705.38;5071749;28;20192;-74
2023/03/12 10:23:54;;;;;;;6.20;5.23;;;;;;;7.05;100.00;97704.97;5073868;28;20224;-74
2023/03/12 10:26:25;;;;;;;8.43;5.17;;;;;;;7.11;100.00;97698.91;5073580;28;20638;-74
2023/03/12 10:28:57;;;;;;;7.67;5.77;;;;;;;7.10;100.00;97706.00;5073604;28;20194;-74
2023/03/12 10:31:31;;;;;;;7.27;5.13;;;;;;;7.14;100.00;97701.94;5074003;28;20190;-74
2023/03/12 10:34:01;;;;;;;6.30;5.40;;;;;;;7.38;100.00;97711.03;5073978;28;20196;-74
2023/03/12 10:36:27;;;;;;;7.17;5.20;;;;;;;7.58;100.00;97709.16;5073703;28;20205;-74
2023/03/12 10:38:53;;;;;;;6.37;5.33;;;;;;;7.52;100.00;97708.13;5073603;28;20204;-77
2023/03/12 10:41:26;;;;;;;10.53;5.80;;;;;;;7.35;100.00;97716.75;5073340;28;20209;-77
2023/03/12 10:43:54;;;;;;;5.97;4.60;;;;;;;7.41;100.00;97726.47;5073629;28;20235;-74
2023/03/12 10:46:59;;;;;;;5.50;4.83;;;;;;;7.10;100.00;97734.28;5073253;28;20204;-74
2023/03/12 10:49:28;;;;;;;7.00;6.07;;;;;;;7.35;100.00;97743.19;5061958;28;20665;-74
2023/03/12 10:51:55;;;;;;;10.97;6.03;;;;;;;7.59;100.00;97737.22;5073537;28;20227;-74
2023/03/12 10:54:28;;;;;;;2.57;1.83;;;;;;;7.75;100.00;97740.25;5073231;28;20608;-74
2023/03/12 10:56:55;;;;;;;1.47;1.30;;;;;;;8.02;100.00;97738.31;5073460;28;20192;-74
2023/03/12 10:59:25;;;;;;;1.10;1.00;;;;;;;8.08;100.00;97740.94;5073347;28;20226;-73
2023/03/12 11:01:52;;;;;;;1.40;1.10;;;;;;;8.19;100.00;97742.91;5072890;28;20602;-73
2023/03/12 11:04:24;;;;;;;1.47;1.30;;;;;;;8.23;100.00;97743.34;5073044;28;20245;-73
2023/03/12 11:07:12;;;;;;;1.23;1.13;;;;;;;8.29;100.00;97740.63;5073301;28;20209;-74
2023/03/12 11:09:38;;;;;;;2.13;1.20;;;;;;;8.33;100.00;97743.69;5073968;28;20218;-74
2023/03/12 11:12:25;;;;;;;2.13;1.20;;;;;;;8.44;100.00;97745.66;5073070;28;20231;-74
2023/03/12 11:14:51;;;;;;;1.20;1.10;;;;;;;8.55;100.00;97750.28;5073356;28;20271;-73
2023/03/12 11:17:24;;;;;;;2.60;1.20;;;;;;;8.69;100.00;97742.03;5072963;28;20218;-73
2023/03/12 11:19:51;;;;;;;1.87;1.50;;;;;;;8.84;100.00;97737.25;5073995;28;20224;-73
2023/03/12 11:22:32;;;;;;;1.37;1.10;;;;;;;9.27;100.00;97743.38;5073107;28;20228;-74
2023/03/12 11:25:06;;;;;;;1.30;1.10;;;;;;;9.68;100.00;97746.25;5073024;28;20193;-74
2023/03/12 11:27:38;;;;;;;1.20;1.00;;;;;;;9.77;100.00;97746.78;5073565;28;20188;-74
2023/03/12 11:30:07;;;;;;;2.40;1.00;;;;;;;9.68;100.00;97740.94;5073155;28;20188;-74
2023/03/12 11:32:56;;;;;;;0.93;0.73;;;;;;;9.80;100.00;97746.31;5072973;28;20224;-74
2023/03/12 11:35:56;;;;;;;1.37;1.10;;;;;;;9.99;100.00;97743.44;5072863;28;20200;-74
2023/03/12 11:38:34;;;;;;;1.27;1.00;;;;;;;10.02;100.00;97742.19;5072477;28;20200;-74
2023/03/12 11:41:53;;;;;;;0.93;0.83;;;;;;;10.09;100.00;97737.66;5072844;28;20208;-74
2023/03/12 11:44:27;;;;;;;1.87;0.80;;;;;;;10.19;100.00;97730.75;5060707;28;20216;-74